Avon Lake, Ohio
Current Conditions -  °F | °C
As of 5:51 PM on Monday 24 Nov 2014 (Local Time) from KCLE Reporting Station
Broken Clouds Broken Clouds  
Wind Chill:   Ceiling: 3800
Heat Index:   Visibility: 10mi
Dew Point:   Wind: 29mph
Humidity: 63%   Direction: 230°SW
Pressure: 29.64"   Gusts: 41mph
Location:  41.51°N, 82.02°W
Report Text: KCLE 242251Z 23025G36KT 10SM BKN038 07/01 A2964 RMK AO2 PK WND 25038/2159 SLP038 T00720006 $
Loading
Personal Weather Stations






























Interactive Weather Map New forecast layout! Learn more

10-Day Weather Forecast

Advertisements
Track Severe Weather on mobile